Main page
METAR-TAF:

METAR-TAF

Airports :

Tel Aviv / Ben Gurion, Israel

Ben Gurion Airport

latitude: 32-00N, longitude: 034-54E, elevation: 40 m

Current weather observation

The report was made 44 minutes ago, at 03:20 UTC
Wind 1 kt from variable directions
Temperature 17°C
Humidity 82%
Pressure 1012 hPa
Visibility 10 km or more
Few clouds at a height of 3500 ft

METAR: LLBG 240320Z VRB01KT 9999 FEW035 17/14 Q1012 NOSIG

Time: 07:04 (04:04 UTC)

Forecast

The report was made 4 hours and 56 minutes ago, at 23:08 UTC
Forecast valid from 24 at 00 UTC to 24 at 24 UTC
Wind 4 kt from variable directions
Visibility 10 km or more
Few clouds at a height of 3500 ft
Becoming
from 24 at 07 UTC to 24 at 09 UTC
Wind 8 kt from the West/Northwest
Visibility 10 km or more
no clouds below 1500 m and no cumulonimbus
Becoming
from 24 at 16 UTC to 24 at 18 UTC
Wind 4 kt from variable directions

TAF: LLBG 232308Z 2400/2424 VRB04KT 9999 FEW035 BECMG 2407/2409 30008KT CAVOK BECMG 2416/2418 VRB04KT TX27/2410Z TN18/2403Z

Weather observations and forecasts of more than 4000 airports (METAR and TAF reports).

The available stations are represented by yellow and red dots on the map.

Hover mouse over dot to see the name of the station.

Then click to see weather observations and forecasts.

To change the map : click on the green buttons with a black cross to zoom in, on the green button with a dash to zoom out, or on the green arrows for adjacent maps.


METAR-TAF: